Main page
METAR-TAF:

METAR-TAF

Airports :

London-Stansted, England

London Stansted Airport

latitude: 51-53N, longitude: 000-14E, elevation: 106 m

Current weather observation

The report was made 24 minutes ago, at 23:50 UTC
Wind 6 kt from the Northeast
Temperature -2°C
Humidity 100%
Pressure 1023 hPa
Visibility: 5000 m
haze

METAR: EGSS 222350Z AUTO 04006KT 5000 HZ NCD M02/M02 Q1023

Time: 00:14 (00:14 UTC)

Forecast

The report was made 1 hour and 19 minutes ago, at 22:55 UTC
Forecast valid from 23 at 00 UTC to 24 at 06 UTC
Wind 8 kt from the East/Northeast
Visibility 10 km or more
Few clouds at a height of 4500 ft
Temporary
from 23 at 00 UTC to 23 at 11 UTC
Visibility: 8000 m
Probability 30% :
Temporary
from 24 at 00 UTC to 24 at 06 UTC
Visibility: 8000 m

TAF: EGSS 222255Z 2300/2406 06008KT 9999 FEW045 TEMPO 2300/2311 8000 PROB30 TEMPO 2400/2406 8000

Weather observations and forecasts of more than 4000 airports (METAR and TAF reports).

The available stations are represented by yellow and red dots on the map.

Hover mouse over dot to see the name of the station.

Then click to see weather observations and forecasts.

To change the map : click on the green buttons with a black cross to zoom in, on the green button with a dash to zoom out, or on the green arrows for adjacent maps.


METAR-TAF: